sensor_id;sensor_type;location;lat;lon;timestamp;pressure;altitude;pressure_sealevel;temperature;humidity
73105;BME280;61296;50.526;30.792;2023-01-19T00:01:24;98685.47;;;5.07;100.00
73105;BME280;61296;50.526;30.792;2023-01-19T00:16:44;98718.16;;;5.27;100.00
73105;BME280;61296;50.526;30.792;2023-01-19T00:32:04;98779.44;;;5.33;100.00
73105;BME280;61296;50.526;30.792;2023-01-19T00:47:24;98715.75;;;5.02;100.00
73105;BME280;61296;50.526;30.792;2023-01-19T01:02:44;98804.13;;;5.59;100.00
73105;BME280;61296;50.526;30.792;2023-01-19T01:18:03;98765.66;;;5.45;100.00
73105;BME280;61296;50.526;30.792;2023-01-19T01:33:22;98789.56;;;5.32;100.00
73105;BME280;61296;50.526;30.792;2023-01-19T01:49:14;98778.59;;;4.93;100.00
73105;BME280;61296;50.526;30.792;2023-01-19T02:04:36;98768.88;;;4.77;100.00
73105;BME280;61296;50.526;30.792;2023-01-19T02:19:56;98853.06;;;5.33;100.00
73105;BME280;61296;50.526;30.792;2023-01-19T02:35:15;98793.53;;;5.00;100.00
73105;BME280;61296;50.526;30.792;2023-01-19T02:50:36;98852.41;;;5.39;100.00
73105;BME280;61296;50.526;30.792;2023-01-19T03:06:03;98799.16;;;5.26;100.00
73105;BME280;61296;50.526;30.792;2023-01-19T03:21:26;98745.81;;;4.55;100.00
73105;BME280;61296;50.526;30.792;2023-01-19T03:36:50;98789.16;;;4.60;100.00
73105;BME280;61296;50.526;30.792;2023-01-19T08:08:06;98773.88;;;2.44;100.00
73105;BME280;61296;50.526;30.792;2023-01-19T08:23:27;98821.59;;;2.81;100.00
73105;BME280;61296;50.526;30.792;2023-01-19T08:38:46;98836.50;;;3.00;100.00
73105;BME280;61296;50.526;30.792;2023-01-19T08:54:06;98817.31;;;3.21;100.00
73105;BME280;61296;50.526;30.792;2023-01-19T09:09:25;98802.31;;;3.39;100.00
73105;BME280;61296;50.526;30.792;2023-01-19T09:24:47;98806.00;;;3.74;100.00
73105;BME280;61296;50.526;30.792;2023-01-19T09:40:10;98766.84;;;3.91;100.00
73105;BME280;61296;50.526;30.792;2023-01-19T09:55:30;98768.19;;;4.29;100.00
73105;BME280;61296;50.526;30.792;2023-01-19T10:10:54;98757.94;;;4.57;100.00
73105;BME280;61296;50.526;30.792;2023-01-19T10:26:25;98718.81;;;4.81;100.00
73105;BME280;61296;50.526;30.792;2023-01-19T10:41:51;98709.03;;;5.00;100.00
73105;BME280;61296;50.526;30.792;2023-01-19T10:57:12;98657.72;;;5.02;100.00
73105;BME280;61296;50.526;30.792;2023-01-19T11:12:41;98663.16;;;5.21;100.00
73105;BME280;61296;50.526;30.792;2023-01-19T11:28:02;98651.25;;;5.52;100.00
73105;BME280;61296;50.526;30.792;2023-01-19T11:43:23;98614.75;;;5.60;100.00
73105;BME280;61296;50.526;30.792;2023-01-19T11:58:44;98630.44;;;5.90;100.00
73105;BME280;61296;50.526;30.792;2023-01-19T12:14:18;98648.72;;;6.08;100.00
73105;BME280;61296;50.526;30.792;2023-01-19T16:45:11;98641.25;;;7.66;100.00
73105;BME280;61296;50.526;30.792;2023-01-19T17:00:31;98713.88;;;7.97;100.00
73105;BME280;61296;50.526;30.792;2023-01-19T17:15:51;98637.13;;;7.42;100.00
73105;BME280;61296;50.526;30.792;2023-01-19T17:31:12;98626.59;;;7.48;100.00
73105;BME280;61296;50.526;30.792;2023-01-19T17:46:37;98710.88;;;8.13;100.00
73105;BME280;61296;50.526;30.792;2023-01-19T18:01:56;98688.09;;;8.02;100.00
73105;BME280;61296;50.526;30.792;2023-01-19T18:17:16;98644.16;;;7.84;100.00
73105;BME280;61296;50.526;30.792;2023-01-19T18:32:36;98698.03;;;8.21;100.00
73105;BME280;61296;50.526;30.792;2023-01-19T18:47:59;98694.72;;;8.01;100.00
73105;BME280;61296;50.526;30.792;2023-01-19T19:03:18;98641.44;;;7.43;100.00
73105;BME280;61296;50.526;30.792;2023-01-19T19:18:38;98665.31;;;7.50;100.00
73105;BME280;61296;50.526;30.792;2023-01-19T19:33:58;98662.41;;;7.32;100.00
73105;BME280;61296;50.526;30.792;2023-01-19T19:49:17;98670.53;;;7.25;100.00
73105;BME280;61296;50.526;30.792;2023-01-19T22:34:32;98773.84;;;6.79;100.00
73105;BME280;61296;50.526;30.792;2023-01-19T22:49:52;98854.44;;;7.18;100.00
73105;BME280;61296;50.526;30.792;2023-01-19T23:05:12;98865.53;;;7.29;100.00
73105;BME280;61296;50.526;30.792;2023-01-19T23:20:31;98877.59;;;7.51;100.00
73105;BME280;61296;50.526;30.792;2023-01-19T23:35:54;98791.38;;;7.04;100.00
73105;BME280;61296;50.526;30.792;2023-01-19T23:51:22;98885.00;;;7.50;100.00
